Time;durP1;ratioP1;P1;durP2;ratioP2;P2;SDS_P1;SDS_P2;PMS_P1;PMS_P2;Temp;Humidity;BMP_temperature;BMP_pressure;BME280_temperature;BME280_humidity;BME280_pressure;Samples;Min_cycle;Max_cycle;Signal;HPM_P1;HPM_P2
2022/09/14 00:00:25;;;;;;;2.97;1.70;;;21.90;99.90;;;;;;7393235;19;20165;-75
2022/09/14 00:02:54;;;;;;;2.67;1.88;;;21.90;99.90;;;;;;7396108;19;20151;-76
2022/09/14 00:05:19;;;;;;;4.40;2.40;;;21.50;99.90;;;;;;7392580;19;20157;-76
2022/09/14 00:07:46;;;;;;;2.55;1.90;;;21.50;99.90;;;;;;7393692;19;20162;-76
2022/09/14 00:10:12;;;;;;;3.90;1.92;;;21.60;99.90;;;;;;7394820;19;20143;-77
2022/09/14 00:12:39;;;;;;;3.33;1.73;;;21.60;99.90;;;;;;7393262;19;20619;-75
2022/09/14 00:15:06;;;;;;;2.20;1.80;;;21.70;99.90;;;;;;7393938;19;20162;-76
2022/09/14 00:17:32;;;;;;;3.05;1.90;;;21.60;99.90;;;;;;7393516;19;20217;-76
2022/09/14 00:19:58;;;;;;;2.53;1.73;;;21.40;99.90;;;;;;7391577;19;20142;-76
2022/09/14 00:22:24;;;;;;;3.38;2.00;;;21.40;99.90;;;;;;7392672;19;20173;-77
2022/09/14 00:24:49;;;;;;;2.95;1.98;;;21.50;99.90;;;;;;7391252;19;20154;-77
2022/09/14 00:27:15;;;;;;;5.53;2.05;;;21.60;99.90;;;;;;7393715;19;20151;-76
2022/09/14 00:29:41;;;;;;;5.88;2.35;;;21.50;99.90;;;;;;7392399;19;20142;-77
2022/09/14 00:32:07;;;;;;;3.55;1.80;;;21.60;99.90;;;;;;7392732;19;20639;-77
2022/09/14 00:34:33;;;;;;;3.15;2.10;;;21.60;99.90;;;;;;7393642;19;20138;-77
2022/09/14 00:36:59;;;;;;;3.90;1.67;;;21.50;99.90;;;;;;7393065;19;20173;-77
2022/09/14 00:39:27;;;;;;;2.45;1.75;;;21.60;99.90;;;;;;7391642;19;20202;-76
2022/09/14 00:41:53;;;;;;;2.28;1.70;;;21.80;99.90;;;;;;7393659;19;20154;-76
2022/09/14 00:44:18;;;;;;;3.00;2.00;;;21.90;99.90;;;;;;7391755;19;20217;-76
2022/09/14 00:46:47;;;;;;;4.72;1.70;;;21.60;99.90;;;;;;7393144;19;20229;-76
2022/09/14 00:49:36;;;;;;;2.85;1.55;;;21.40;99.90;;;;;;7390540;19;20146;-76
2022/09/14 00:52:07;;;;;;;5.32;1.85;;;21.30;99.90;;;;;;7394662;19;20155;-76
2022/09/14 00:54:44;;;;;;;4.10;2.15;;;21.40;99.90;;;;;;7394091;19;20138;-77
2022/09/14 00:57:11;;;;;;;2.65;1.60;;;21.40;99.90;;;;;;7393784;19;20142;-76
2022/09/14 00:59:39;;;;;;;2.60;1.90;;;21.50;99.90;;;;;;7393417;19;20629;-77
2022/09/14 01:02:08;;;;;;;2.42;1.77;;;21.60;99.90;;;;;;7391123;19;20498;-76
2022/09/14 01:04:35;;;;;;;4.93;2.08;;;21.80;99.90;;;;;;7391347;19;20265;-77
2022/09/14 01:07:19;;;;;;;3.00;1.80;;;21.90;99.90;;;;;;7393359;19;20139;-76
2022/09/14 01:10:13;;;;;;;3.00;1.58;;;22.00;99.90;;;;;;7392161;19;20162;-76
2022/09/14 01:12:57;;;;;;;3.15;1.95;;;21.80;99.90;;;;;;7391325;19;20254;-77
2022/09/14 01:15:42;;;;;;;2.25;1.65;;;21.60;99.90;;;;;;7390483;19;20157;-76
2022/09/14 01:18:21;;;;;;;2.85;1.67;;;21.50;99.90;;;;;;7391864;19;20158;-77
2022/09/14 01:21:10;;;;;;;2.85;1.45;;;21.70;99.90;;;;;;7390355;19;20494;-77
2022/09/14 01:24:03;;;;;;;2.22;1.63;;;21.60;99.90;;;;;;7390865;19;20142;-76
2022/09/14 01:26:45;;;;;;;2.75;1.88;;;21.70;99.90;;;;;;7394758;19;20209;-76
2022/09/14 01:29:11;;;;;;;10.32;2.80;;;21.80;99.90;;;;;;7391476;19;20161;-76
2022/09/14 01:32:01;;;;;;;8.80;1.98;;;21.70;99.90;;;;;;7391002;19;20543;-77
2022/09/14 01:34:38;;;;;;;6.60;2.40;;;21.60;99.90;;;;;;7389224;19;20277;-77
2022/09/14 01:37:28;;;;;;;5.35;1.95;;;21.30;99.90;;;;;;7388110;19;20134;-77
2022/09/14 01:40:19;;;;;;;3.28;1.98;;;21.10;99.90;;;;;;7390799;19;20166;-77
2022/09/14 01:42:57;;;;;;;5.38;2.20;;;20.70;99.90;;;;;;7390212;19;20138;-78
2022/09/14 01:45:26;;;;;;;5.22;2.03;;;20.50;99.90;;;;;;7391180;19;20169;-77
2022/09/14 01:48:05;;;;;;;8.40;2.35;;;20.20;99.90;;;;;;7392523;19;20143;-76
2022/09/14 01:50:45;;;;;;;4.80;1.90;;;20.20;99.90;;;;;;7389297;19;20159;-76
2022/09/14 01:53:25;;;;;;;4.72;1.45;;;20.10;99.90;;;;;;7389802;19;20614;-76
2022/09/14 01:56:00;;;;;;;6.13;2.00;;;20.10;99.90;;;;;;7393064;19;20122;-76
2022/09/14 01:58:45;;;;;;;7.72;1.50;;;20.00;99.90;;;;;;7389544;19;20150;-76
2022/09/14 02:01:17;;;;;;;3.83;1.70;;;20.10;99.90;;;;;;7388354;19;20134;-76
2022/09/14 02:03:54;;;;;;;2.90;1.83;;;20.10;99.90;;;;;;7390732;19;20161;-77
2022/09/14 02:06:33;;;;;;;4.63;1.80;;;20.10;99.90;;;;;;7387815;19;20130;-77
2022/09/14 02:08:59;;;;;;;5.78;1.80;;;20.20;99.90;;;;;;7388255;19;20134;-79
2022/09/14 02:11:25;;;;;;;5.53;2.00;;;20.20;99.90;;;;;;7390587;19;20130;-77
2022/09/14 02:13:51;;;;;;;12.40;2.75;;;20.20;99.90;;;;;;7391022;19;20617;-76
2022/09/14 02:16:17;;;;;;;6.10;2.42;;;20.10;99.90;;;;;;7391219;19;20193;-76
2022/09/14 02:18:43;;;;;;;3.25;2.20;;;20.20;99.90;;;;;;7388234;19;20152;-76
2022/09/14 02:21:19;;;;;;;5.63;1.90;;;20.20;99.90;;;;;;7391270;19;20591;-77
2022/09/14 02:23:46;;;;;;;6.50;2.15;;;20.10;99.90;;;;;;7389581;19;20142;-76
2022/09/14 02:26:12;;;;;;;8.05;1.85;;;20.20;99.90;;;;;;7389885;19;20205;-77
2022/09/14 02:28:38;;;;;;;4.40;1.65;;;20.20;99.90;;;;;;7390433;19;20498;-77
2022/09/14 02:31:38;;;;;;;3.15;1.52;;;20.10;99.90;;;;;;7389234;19;20146;-77
2022/09/14 02:34:17;;;;;;;4.38;1.65;;;20.10;99.90;;;;;;7389057;19;20483;-78
2022/09/14 02:36:49;;;;;;;7.63;1.55;;;20.00;99.90;;;;;;7391552;19;20150;-78
2022/09/14 02:39:32;;;;;;;3.40;2.00;;;20.20;99.90;;;;;;7389412;19;20146;-77
2022/09/14 02:42:19;;;;;;;2.38;1.55;;;20.30;99.90;;;;;;7389742;19;20737;-77
2022/09/14 02:45:19;;;;;;;2.10;1.40;;;20.20;99.90;;;;;;7389473;19;20149;-77
2022/09/14 02:48:15;;;;;;;3.85;1.65;;;20.20;99.90;;;;;;7390123;19;20763;-77
2022/09/14 02:51:04;;;;;;;3.17;1.92;;;20.30;99.90;;;;;;7388779;19;20135;-77
2022/09/14 02:53:58;;;;;;;7.13;1.98;;;20.30;99.90;;;;;;7392714;19;20131;-78
2022/09/14 02:56:25;;;;;;;4.32;2.15;;;20.40;99.90;;;;;;7396562;19;20213;-78
2022/09/14 02:58:51;;;;;;;5.07;1.95;;;20.50;99.90;;;;;;7395417;19;20319;-78
2022/09/14 03:01:19;;;;;;;4.63;2.05;;;20.50;99.90;;;;;;7398089;19;21863;-78
2022/09/14 03:03:45;;;;;;;5.40;2.03;;;20.40;99.90;;;;;;7397116;19;20474;-78
2022/09/14 03:06:10;;;;;;;3.55;1.70;;;20.50;99.90;;;;;;7397604;19;20126;-78
2022/09/14 03:08:37;;;;;;;6.10;2.20;;;20.20;99.90;;;;;;7394233;19;20134;-78
2022/09/14 03:11:02;;;;;;;3.63;1.95;;;20.10;99.90;;;;;;7397741;19;20131;-78
2022/09/14 03:13:28;;;;;;;2.67;1.70;;;20.00;99.90;;;;;;7395206;19;20153;-78
2022/09/14 03:15:54;;;;;;;3.35;1.73;;;20.20;99.90;;;;;;7394737;19;20152;-78
2022/09/14 03:18:19;;;;;;;3.65;1.83;;;20.30;99.90;;;;;;7395169;19;20157;-77
2022/09/14 03:20:45;;;;;;;4.60;1.88;;;20.30;99.90;;;;;;7399378;19;20153;-78
2022/09/14 03:23:12;;;;;;;2.80;1.90;;;20.40;99.90;;;;;;7395537;19;20489;-78
2022/09/14 03:25:40;;;;;;;5.03;2.10;;;20.40;99.90;;;;;;7393675;19;20146;-77
2022/09/14 03:28:07;;;;;;;2.70;1.73;;;20.40;99.90;;;;;;7393843;19;20168;-77
2022/09/14 03:30:33;;;;;;;4.40;1.70;;;20.40;99.90;;;;;;7395361;19;20623;-77
2022/09/14 03:33:00;;;;;;;2.92;1.70;;;20.40;99.90;;;;;;7395442;19;20142;-77
2022/09/14 03:35:30;;;;;;;3.83;1.83;;;20.40;99.90;;;;;;7395513;19;20622;-77
2022/09/14 03:37:56;;;;;;;1.98;1.67;;;20.40;99.90;;;;;;7393155;19;20142;-78
2022/09/14 03:40:23;;;;;;;3.33;1.60;;;20.40;99.90;;;;;;7393550;19;20135;-77
2022/09/14 03:42:51;;;;;;;3.85;1.77;;;20.40;99.90;;;;;;7395019;19;20559;-78
2022/09/14 03:45:18;;;;;;;3.25;1.85;;;20.40;99.90;;;;;;7395439;19;20142;-79
2022/09/14 03:47:45;;;;;;;2.97;1.77;;;20.40;99.90;;;;;;7396865;19;20200;-78
2022/09/14 03:50:14;;;;;;;2.00;1.35;;;20.30;99.90;;;;;;7395693;19;20928;-78
2022/09/14 03:52:40;;;;;;;2.63;1.73;;;20.30;99.90;;;;;;7396351;19;20138;-78
2022/09/14 03:55:08;;;;;;;1.92;1.70;;;20.10;99.90;;;;;;7394616;19;20169;-78
2022/09/14 03:57:34;;;;;;;3.13;1.70;;;19.90;99.90;;;;;;7393960;19;20155;-78
2022/09/14 04:00:00;;;;;;;2.45;1.50;;;20.00;99.90;;;;;;7396393;19;20588;-78
2022/09/14 04:02:27;;;;;;;2.53;1.40;;;20.10;99.90;;;;;;7393403;19;20587;-78
2022/09/14 04:04:53;;;;;;;4.53;1.98;;;20.20;99.90;;;;;;7393945;19;20134;-78
2022/09/14 04:07:19;;;;;;;3.00;1.60;;;20.20;99.90;;;;;;7393308;19;20142;-78
2022/09/14 04:09:44;;;;;;;3.75;1.98;;;20.20;99.90;;;;;;7395949;19;20127;-78
2022/09/14 04:12:10;;;;;;;2.40;1.70;;;20.20;99.90;;;;;;7393894;19;20274;-77
2022/09/14 04:14:36;;;;;;;3.42;2.35;;;20.10;99.90;;;;;;7396349;19;20599;-78
2022/09/14 04:17:04;;;;;;;3.15;1.80;;;20.20;99.90;;;;;;7393625;19;20208;-77
2022/09/14 04:19:30;;;;;;;2.65;1.85;;;20.20;99.90;;;;;;7394869;19;20564;-78
2022/09/14 04:21:56;;;;;;;2.65;1.88;;;20.20;99.90;;;;;;7396385;19;20150;-78
2022/09/14 04:24:22;;;;;;;2.05;1.73;;;20.00;99.90;;;;;;7393532;19;20173;-78
2022/09/14 04:26:47;;;;;;;3.05;2.13;;;20.00;99.90;;;;;;7396594;19;20145;-78
2022/09/14 04:29:13;;;;;;;5.30;1.88;;;19.90;99.90;;;;;;7393880;19;20138;-79
2022/09/14 04:31:39;;;;;;;3.88;1.85;;;20.10;99.90;;;;;;7393564;19;20126;-77
2022/09/14 04:34:05;;;;;;;4.55;1.67;;;20.10;99.90;;;;;;7392817;19;20695;-77
2022/09/14 04:36:31;;;;;;;2.22;1.65;;;20.20;99.90;;;;;;7394396;19;20126;-77
2022/09/14 04:39:01;;;;;;;2.22;1.83;;;20.20;99.90;;;;;;7391912;19;20627;-78
2022/09/14 04:41:28;;;;;;;3.55;1.88;;;20.20;99.90;;;;;;7392905;19;20179;-78
2022/09/14 04:43:55;;;;;;;2.72;1.83;;;20.20;99.90;;;;;;7391313;19;20678;-78
2022/09/14 04:46:28;;;;;;;2.75;1.67;;;20.10;99.90;;;;;;7393074;19;20513;-78
2022/09/14 04:48:54;;;;;;;4.20;1.98;;;20.10;99.90;;;;;;7390928;19;20139;-79
2022/09/14 04:51:23;;;;;;;2.92;1.80;;;20.10;99.90;;;;;;7393944;19;20223;-79
2022/09/14 04:53:51;;;;;;;3.97;2.03;;;20.10;99.90;;;;;;7389962;19;20139;-78
2022/09/14 04:56:19;;;;;;;2.35;1.58;;;19.90;99.90;;;;;;7393701;19;20139;-78
2022/09/14 04:58:47;;;;;;;2.53;1.75;;;20.00;99.90;;;;;;7393584;19;20135;-78
2022/09/14 05:01:16;;;;;;;3.40;2.08;;;20.20;99.90;;;;;;7394615;19;20130;-78
2022/09/14 05:03:42;;;;;;;3.03;1.95;;;20.30;99.90;;;;;;7391385;19;20202;-77
2022/09/14 05:06:14;;;;;;;3.15;1.75;;;20.40;99.90;;;;;;7392802;19;20130;-77
2022/09/14 05:08:40;;;;;;;3.88;2.20;;;20.50;99.90;;;;;;7391613;19;20640;-77
2022/09/14 05:11:08;;;;;;;3.28;2.40;;;20.30;99.90;;;;;;7391932;19;20138;-77
2022/09/14 05:13:35;;;;;;;5.20;2.67;;;20.40;99.90;;;;;;7389746;19;20573;-77
2022/09/14 05:16:15;;;;;;;3.47;2.50;;;20.40;99.90;;;;;;7392116;19;20157;-77
2022/09/14 05:18:42;;;;;;;5.07;2.47;;;20.50;99.90;;;;;;7389767;19;20139;-77
2022/09/14 05:21:11;;;;;;;3.55;2.60;;;20.40;99.90;;;;;;7392802;19;20138;-78
2022/09/14 05:23:37;;;;;;;3.28;2.38;;;20.50;99.90;;;;;;7391905;19;20135;-78
2022/09/14 05:26:04;;;;;;;3.00;2.70;;;20.50;99.90;;;;;;7389868;19;20633;-78
2022/09/14 05:28:31;;;;;;;4.65;2.67;;;20.60;99.90;;;;;;7391063;19;20255;-78
2022/09/14 05:30:57;;;;;;;4.85;2.75;;;20.50;99.90;;;;;;7388893;19;20239;-77
2022/09/14 05:33:22;;;;;;;3.55;2.40;;;20.50;99.90;;;;;;7389132;19;20147;-77
2022/09/14 05:35:49;;;;;;;5.05;2.55;;;20.40;99.90;;;;;;7387394;19;20130;-77
2022/09/14 05:38:15;;;;;;;3.83;1.90;;;20.40;99.90;;;;;;7387792;19;20230;-77
2022/09/14 05:40:41;;;;;;;4.05;2.03;;;20.40;99.90;;;;;;7383730;19;20142;-75
2022/09/14 05:43:07;;;;;;;5.35;2.42;;;20.50;99.90;;;;;;7385817;19;20843;-75
2022/09/14 05:45:39;;;;;;;2.50;2.10;;;20.50;99.90;;;;;;7380341;19;20217;-75
2022/09/14 05:48:05;;;;;;;5.00;2.17;;;20.50;99.90;;;;;;7392792;19;20135;-75
2022/09/14 05:50:33;;;;;;;4.47;2.95;;;20.40;99.90;;;;;;7391440;19;20485;-75
2022/09/14 05:52:59;;;;;;;3.60;2.33;;;20.50;99.90;;;;;;7388184;19;20226;-75
2022/09/14 05:55:25;;;;;;;3.22;2.50;;;20.40;99.90;;;;;;7388976;19;20165;-76
2022/09/14 05:57:51;;;;;;;4.18;2.42;;;20.00;99.90;;;;;;7390940;19;20180;-76
2022/09/14 06:00:18;;;;;;;4.78;3.85;;;20.10;99.90;;;;;;7391551;19;20201;-76
2022/09/14 06:02:53;;;;;;;4.80;2.20;;;20.20;99.90;;;;;;7391359;19;20131;-75
2022/09/14 06:05:20;;;;;;;3.53;2.22;;;20.20;99.90;;;;;;7390615;19;20132;-75
2022/09/14 06:07:51;;;;;;;6.32;2.55;;;20.60;99.90;;;;;;7389637;19;20151;-75
2022/09/14 06:10:18;;;;;;;3.88;2.20;;;20.60;99.90;;;;;;7391032;19;20165;-76
2022/09/14 06:12:44;;;;;;;4.93;2.60;;;20.50;99.90;;;;;;7391132;19;20747;-76
2022/09/14 06:15:10;;;;;;;6.38;3.17;;;20.60;99.90;;;;;;7391837;19;21023;-76
2022/09/14 06:17:36;;;;;;;5.30;2.88;;;20.70;99.90;;;;;;7389227;19;20135;-76
2022/09/14 06:20:04;;;;;;;4.65;2.35;;;20.80;99.90;;;;;;7388705;19;20138;-75
2022/09/14 06:22:30;;;;;;;4.38;2.50;;;20.90;99.90;;;;;;7387579;19;20880;-75
2022/09/14 06:24:56;;;;;;;3.03;2.65;;;20.80;99.90;;;;;;7386711;19;20147;-75
2022/09/14 06:27:22;;;;;;;3.20;2.58;;;20.80;99.90;;;;;;7387543;19;20238;-75
2022/09/14 06:29:51;;;;;;;5.18;2.78;;;20.80;99.90;;;;;;7403103;19;20130;-76
2022/09/14 06:32:17;;;;;;;4.80;3.05;;;20.70;99.90;;;;;;7402346;19;20134;-76
2022/09/14 06:34:44;;;;;;;6.63;2.95;;;20.70;99.90;;;;;;7402720;19;20642;-76
2022/09/14 06:37:10;;;;;;;5.75;3.55;;;20.80;99.90;;;;;;7401679;19;20163;-76
2022/09/14 06:39:36;;;;;;;5.72;4.05;;;20.90;99.90;;;;;;7404004;19;20590;-75
2022/09/14 06:42:02;;;;;;;18.98;13.02;;;20.90;99.90;;;;;;7403458;19;20194;-76
2022/09/14 06:44:28;;;;;;;8.95;6.07;;;20.80;99.90;;;;;;7399312;19;20172;-75
2022/09/14 06:46:53;;;;;;;7.93;4.32;;;20.80;99.90;;;;;;7402604;19;20157;-75
2022/09/14 06:49:21;;;;;;;7.55;3.58;;;20.90;99.90;;;;;;7399751;19;20123;-76
2022/09/14 06:51:49;;;;;;;6.43;3.70;;;21.00;99.90;;;;;;7399239;19;20226;-76
2022/09/14 06:54:16;;;;;;;4.60;2.97;;;21.00;99.90;;;;;;7401701;19;20226;-76
2022/09/14 06:56:43;;;;;;;4.43;3.42;;;20.80;99.90;;;;;;7400810;19;20177;-76
2022/09/14 06:59:16;;;;;;;4.32;3.33;;;20.90;99.90;;;;;;7400854;19;20149;-77
2022/09/14 07:01:44;;;;;;;5.40;3.08;;;21.00;99.90;;;;;;7401874;19;20134;-75
2022/09/14 07:04:10;;;;;;;3.63;2.72;;;21.00;99.90;;;;;;7401490;19;20123;-76
2022/09/14 07:06:42;;;;;;;3.35;2.03;;;21.00;99.90;;;;;;7405372;19;20130;-77
2022/09/14 07:09:07;;;;;;;4.22;2.78;;;21.10;99.90;;;;;;7403059;19;20146;-77
2022/09/14 07:11:33;;;;;;;3.55;2.58;;;21.10;99.90;;;;;;7401283;19;20149;-75
2022/09/14 07:14:00;;;;;;;4.47;2.83;;;21.20;99.90;;;;;;7405642;19;20131;-77
2022/09/14 07:16:28;;;;;;;3.58;2.78;;;21.40;99.90;;;;;;7402522;19;20150;-77
2022/09/14 07:18:56;;;;;;;3.67;2.28;;;21.60;99.90;;;;;;7401112;19;20130;-76
2022/09/14 07:21:22;;;;;;;4.80;3.15;;;21.70;99.90;;;;;;7401499;19;20202;-74
2022/09/14 07:23:51;;;;;;;2.83;2.50;;;21.90;99.90;;;;;;7402162;19;20579;-76
2022/09/14 07:26:24;;;;;;;5.43;2.90;;;21.90;99.90;;;;;;7404645;19;20135;-79
2022/09/14 07:28:54;;;;;;;3.72;2.75;;;22.10;99.90;;;;;;7400327;19;20205;-77
2022/09/14 07:31:26;;;;;;;5.50;2.63;;;22.10;99.90;;;;;;7401623;19;20441;-80
2022/09/14 07:33:53;;;;;;;4.40;2.25;;;22.20;99.90;;;;;;7399006;19;20183;-76
2022/09/14 07:36:21;;;;;;;2.72;2.03;;;22.10;99.90;;;;;;7401126;19;20150;-77
2022/09/14 07:38:47;;;;;;;3.47;2.10;;;22.10;99.90;;;;;;7399548;19;20467;-76
2022/09/14 07:41:13;;;;;;;3.38;2.35;;;22.20;99.90;;;;;;7393687;19;20254;-76
2022/09/14 07:43:38;;;;;;;3.47;2.30;;;22.20;99.90;;;;;;7391497;19;20166;-75
2022/09/14 07:46:06;;;;;;;3.03;2.05;;;22.20;99.90;;;;;;7391332;19;20442;-74
2022/09/14 07:48:33;;;;;;;3.53;2.00;;;22.20;99.90;;;;;;7393969;19;20158;-77
2022/09/14 07:51:09;;;;;;;3.10;2.30;;;22.30;99.90;;;;;;7396748;19;20563;-77
2022/09/14 07:53:41;;;;;;;3.97;2.55;;;22.30;99.90;;;;;;7393613;19;20556;-74
2022/09/14 07:56:08;;;;;;;3.10;2.13;;;22.40;99.90;;;;;;7393226;19;20150;-75
2022/09/14 07:58:34;;;;;;;2.50;1.90;;;22.50;99.90;;;;;;7393337;19;20826;-77
2022/09/14 08:01:07;;;;;;;2.20;1.75;;;22.60;99.90;;;;;;7395457;19;20135;-76
2022/09/14 08:03:35;;;;;;;3.17;2.63;;;22.70;99.90;;;;;;7395292;19;20141;-77
2022/09/14 08:06:05;;;;;;;3.05;2.03;;;22.80;99.90;;;;;;7393723;19;20130;-79
2022/09/14 08:08:34;;;;;;;2.03;1.80;;;22.90;99.90;;;;;;7397146;19;20142;-77
2022/09/14 08:11:22;;;;;;;2.97;1.70;;;23.00;99.90;;;;;;7393562;19;20618;-78
2022/09/14 08:13:57;;;;;;;3.42;1.95;;;23.10;99.90;;;;;;7394206;19;20153;-78
2022/09/14 08:16:24;;;;;;;5.82;4.28;;;23.20;99.90;;;;;;7393127;19;20169;-76
2022/09/14 08:18:56;;;;;;;6.90;4.25;;;23.10;99.90;;;;;;7392533;19;20198;-77
2022/09/14 08:21:22;;;;;;;2.75;2.10;;;23.10;99.90;;;;;;7392944;19;20827;-77
2022/09/14 08:23:50;;;;;;;3.95;1.90;;;23.30;99.90;;;;;;7395928;19;20149;-77
2022/09/14 08:26:18;;;;;;;5.28;2.00;;;23.50;99.90;;;;;;7396594;19;20154;-78
2022/09/14 08:28:45;;;;;;;2.58;1.77;;;23.50;99.90;;;;;;7394103;19;20209;-76
2022/09/14 08:31:13;;;;;;;2.85;2.15;;;23.60;99.90;;;;;;7397490;19;20139;-76
2022/09/14 08:33:44;;;;;;;3.08;1.95;;;23.80;99.90;;;;;;7395307;19;20134;-74
2022/09/14 08:36:13;;;;;;;2.03;1.60;;;23.90;99.90;;;;;;7391893;19;20158;-76
2022/09/14 08:38:39;;;;;;;4.55;1.98;;;23.90;99.90;;;;;;7392384;19;20503;-77
2022/09/14 08:41:16;;;;;;;2.65;1.83;;;24.00;99.90;;;;;;7392877;19;20138;-77
2022/09/14 08:43:42;;;;;;;4.20;1.77;;;24.00;99.90;;;;;;7394063;19;21042;-78
2022/09/14 08:46:21;;;;;;;2.95;1.83;;;24.00;99.90;;;;;;7390031;19;20138;-77
2022/09/14 08:48:48;;;;;;;6.07;2.22;;;23.90;99.90;;;;;;7395384;19;20366;-76
2022/09/14 08:51:15;;;;;;;2.65;1.95;;;23.90;99.90;;;;;;7394628;19;20890;-77
2022/09/14 08:53:42;;;;;;;4.25;2.22;;;24.00;99.90;;;;;;7390724;19;20158;-77
2022/09/14 08:56:28;;;;;;;3.78;2.40;;;24.20;99.90;;;;;;7394015;19;20149;-77
2022/09/14 08:59:05;;;;;;;2.40;1.60;;;24.40;99.90;;;;;;7389958;19;20151;-77
2022/09/14 09:02:03;;;;;;;2.53;1.75;;;24.60;99.90;;;;;;7391300;19;20150;-77
2022/09/14 09:04:47;;;;;;;3.22;1.85;;;24.70;99.90;;;;;;7389258;19;20147;-75
2022/09/14 09:07:28;;;;;;;5.25;1.55;;;24.70;99.90;;;;;;7393241;19;20161;-75
2022/09/14 09:09:56;;;;;;;1.83;1.48;;;24.80;99.90;;;;;;7389596;19;20610;-74
2022/09/14 09:12:45;;;;;;;3.20;1.65;;;24.80;99.90;;;;;;7391233;19;20133;-75
2022/09/14 09:15:24;;;;;;;5.78;1.88;;;24.90;99.90;;;;;;7385860;19;21902;-74
2022/09/14 09:17:54;;;;;;;2.40;1.70;;;25.00;99.90;;;;;;7391504;19;20808;-76
2022/09/14 09:20:36;;;;;;;1.50;1.40;;;25.10;99.90;;;;;;7388724;19;20177;-76
2022/09/14 09:23:18;;;;;;;3.33;1.48;;;25.30;99.90;;;;;;7393895;19;20146;-76
2022/09/14 09:25:55;;;;;;;2.60;1.50;;;25.40;99.90;;;;;;7389060;19;20227;-75
2022/09/14 09:28:24;;;;;;;4.70;3.40;;;25.50;99.90;;;;;;7391344;19;20142;-77
2022/09/14 09:30:52;;;;;;;2.97;1.63;;;25.70;99.90;;;;;;7390809;19;20146;-75
2022/09/14 09:33:23;;;;;;;1.83;1.63;;;25.90;99.90;;;;;;7390047;19;20159;-75
2022/09/14 09:35:50;;;;;;;3.63;1.63;;;26.10;99.90;;;;;;7389172;19;20135;-74
2022/09/14 09:38:23;;;;;;;4.28;1.60;;;26.10;99.90;;;;;;7389320;19;20579;-75
2022/09/14 09:41:04;;;;;;;6.10;3.00;;;26.20;99.90;;;;;;7396205;19;20213;-75
2022/09/14 09:43:30;;;;;;;4.47;2.83;;;26.20;99.90;;;;;;7388941;19;20146;-76
2022/09/14 09:46:01;;;;;;;4.90;2.00;;;26.10;99.90;;;;;;7390262;19;20135;-76
2022/09/14 09:48:36;;;;;;;1.70;1.52;;;26.10;99.90;;;;;;7391982;19;20139;-74
2022/09/14 09:51:05;;;;;;;2.75;2.05;;;26.30;99.90;;;;;;7392337;19;20146;-75
2022/09/14 09:53:34;;;;;;;2.65;1.98;;;26.40;99.90;;;;;;7387044;19;20226;-76
2022/09/14 09:56:01;;;;;;;4.57;2.05;;;26.40;99.90;;;;;;7389178;19;20138;-76
2022/09/14 09:58:37;;;;;;;4.82;2.72;;;26.40;99.90;;;;;;7388564;19;20487;-76
2022/09/14 10:01:20;;;;;;;5.28;2.10;;;26.30;99.90;;;;;;7389200;19;20171;-74
2022/09/14 10:04:05;;;;;;;3.70;1.42;;;26.10;99.90;;;;;;7388377;19;20611;-73
2022/09/14 10:06:39;;;;;;;2.63;2.17;;;26.20;99.90;;;;;;7391118;19;20138;-75
2022/09/14 10:09:16;;;;;;;2.40;1.60;;;26.20;99.90;;;;;;7390995;19;20158;-74
2022/09/14 10:11:43;;;;;;;6.40;2.75;;;26.30;99.90;;;;;;7389168;19;20134;-74
2022/09/14 10:14:33;;;;;;;3.28;1.25;;;26.30;99.90;;;;;;7389343;19;20153;-74
2022/09/14 10:17:21;;;;;;;2.35;1.33;;;26.40;99.90;;;;;;7390986;19;20533;-73
2022/09/14 10:19:52;;;;;;;3.42;1.45;;;26.40;99.90;;;;;;7390602;19;20371;-72
2022/09/14 10:22:30;;;;;;;1.98;1.48;;;26.40;99.90;;;;;;7392139;19;20149;-75
2022/09/14 10:25:23;;;;;;;2.35;1.30;;;26.20;99.90;;;;;;7391084;19;20187;-75
2022/09/14 10:27:55;;;;;;;3.20;1.48;;;26.00;99.90;;;;;;7389796;19;20154;-75
2022/09/14 10:30:33;;;;;;;6.00;1.65;;;26.00;99.90;;;;;;7389084;19;20162;-75
2022/09/14 10:33:09;;;;;;;3.25;1.75;;;26.10;99.90;;;;;;7390442;19;20135;-74
2022/09/14 10:35:49;;;;;;;2.25;1.30;;;26.20;99.90;;;;;;7388943;19;20150;-77
2022/09/14 10:38:42;;;;;;;5.97;1.63;;;26.20;99.90;;;;;;7389210;19;20184;-76
2022/09/14 10:41:31;;;;;;;4.13;1.90;;;26.20;99.90;;;;;;7390567;19;20591;-75
2022/09/14 10:44:42;;;;;;;2.25;1.48;;;26.10;99.90;;;;;;7385680;19;20138;-76
2022/09/14 10:47:23;;;;;;;3.05;1.70;;;26.10;99.90;;;;;;7385219;19;20509;-76
2022/09/14 10:50:31;;;;;;;3.40;1.95;;;26.10;99.90;;;;;;7388385;19;20134;-76
2022/09/14 10:53:15;;;;;;;2.70;1.40;;;26.30;99.90;;;;;;7388976;19;20165;-76
2022/09/14 10:56:00;;;;;;;3.13;1.60;;;26.10;99.90;;;;;;7390295;19;20143;-76
2022/09/14 10:59:04;;;;;;;3.53;1.65;;;25.90;99.90;;;;;;7388401;19;20572;-75
2022/09/14 11:01:44;;;;;;;2.10;1.20;;;25.90;99.90;;;;;;7391106;19;20142;-76
2022/09/14 11:04:39;;;;;;;2.85;1.50;;;26.00;99.90;;;;;;7390028;19;20138;-76
2022/09/14 11:07:14;;;;;;;2.10;1.58;;;26.10;99.90;;;;;;7390455;19;20142;-76
2022/09/14 11:09:43;;;;;;;3.05;1.50;;;26.10;99.90;;;;;;7385639;19;20611;-75
2022/09/14 11:12:37;;;;;;;5.43;1.95;;;26.10;99.90;;;;;;7389766;19;20134;-76
2022/09/14 11:15:13;;;;;;;6.30;3.33;;;26.10;99.90;;;;;;7388360;19;20143;-75
2022/09/14 11:17:44;;;;;;;5.32;2.08;;;26.20;99.90;;;;;;7395418;19;20485;-76
2022/09/14 11:20:19;;;;;;;3.45;2.10;;;26.20;99.90;;;;;;7401298;19;20590;-76
2022/09/14 11:22:50;;;;;;;2.15;1.40;;;26.30;99.90;;;;;;7397992;19;20542;-77
2022/09/14 11:25:43;;;;;;;2.22;1.50;;;26.30;99.90;;;;;;7395472;19;20157;-77
2022/09/14 11:28:16;;;;;;;3.75;1.30;;;26.50;99.90;;;;;;7396194;19;20143;-75
2022/09/14 11:31:06;;;;;;;2.90;1.75;;;26.70;99.90;;;;;;7394318;19;20147;-77
2022/09/14 11:33:42;;;;;;;3.97;1.40;;;26.60;99.90;;;;;;7395412;19;20633;-77
2022/09/14 11:36:25;;;;;;;1.83;1.30;;;26.70;99.90;;;;;;7396987;19;20142;-76
2022/09/14 11:39:04;;;;;;;5.43;1.65;;;26.70;99.90;;;;;;7395432;19;20157;-76
2022/09/14 11:41:36;;;;;;;1.80;1.30;;;26.80;99.90;;;;;;7396390;19;20135;-77
2022/09/14 11:44:18;;;;;;;4.05;1.70;;;27.00;99.90;;;;;;7395802;19;20142;-76
2022/09/14 11:46:50;;;;;;;2.28;1.08;;;27.10;99.90;;;;;;7395913;19;20154;-75
2022/09/14 11:49:42;;;;;;;3.05;1.73;;;27.20;99.90;;;;;;7395671;19;20134;-77
2022/09/14 11:52:19;;;;;;;2.33;1.45;;;27.20;99.90;;;;;;7394308;19;20247;-76
2022/09/14 11:54:47;;;;;;;3.40;1.50;;;27.10;99.90;;;;;;7396198;19;20762;-76
2022/09/14 11:57:28;;;;;;;1.95;1.60;;;27.10;99.90;;;;;;7396540;19;20222;-76
2022/09/14 12:00:00;;;;;;;5.13;2.38;;;27.10;99.90;;;;;;7395384;19;20145;-77
2022/09/14 12:02:26;;;;;;;6.53;1.95;;;27.10;99.90;;;;;;7394559;19;20139;-76
2022/09/14 12:05:04;;;;;;;3.78;1.55;;;27.00;99.90;;;;;;7394165;19;20156;-76
2022/09/14 12:07:42;;;;;;;1.92;1.35;;;26.90;99.90;;;;;;7395662;19;20496;-76
2022/09/14 12:10:16;;;;;;;4.53;1.70;;;26.80;99.90;;;;;;7393142;19;20639;-76
2022/09/14 12:12:47;;;;;;;3.80;2.80;;;26.70;99.90;;;;;;7395717;19;20606;-75
2022/09/14 12:15:23;;;;;;;2.90;1.35;;;26.60;99.90;;;;;;7395960;19;20158;-76
2022/09/14 12:17:51;;;;;;;2.70;1.10;;;26.50;99.90;;;;;;7394448;19;20146;-76
2022/09/14 12:20:34;;;;;;;2.08;1.10;;;26.50;99.90;;;;;;7395645;19;20126;-76
2022/09/14 12:23:29;;;;;;;2.53;1.30;;;26.50;99.90;;;;;;7393824;19;20169;-76
2022/09/14 12:26:09;;;;;;;3.47;1.83;;;26.50;99.90;;;;;;7392537;19;20249;-76
2022/09/14 12:28:37;;;;;;;3.45;1.60;;;26.60;99.90;;;;;;7393573;19;20138;-75
2022/09/14 12:31:03;;;;;;;3.13;1.52;;;26.40;99.90;;;;;;7392698;19;20576;-75
2022/09/14 12:33:32;;;;;;;3.60;1.65;;;26.30;99.90;;;;;;7394621;19;20209;-76
2022/09/14 12:36:03;;;;;;;4.65;1.73;;;26.30;99.90;;;;;;7394144;19;20138;-76
2022/09/14 12:38:29;;;;;;;2.10;1.30;;;26.30;99.90;;;;;;7393153;19;20161;-76
2022/09/14 12:40:55;;;;;;;3.63;1.65;;;26.10;99.90;;;;;;7393813;19;20577;-76
2022/09/14 12:43:36;;;;;;;3.45;1.55;;;26.00;99.90;;;;;;7393141;19;20145;-75
2022/09/14 12:46:14;;;;;;;4.18;2.28;;;25.90;99.90;;;;;;7392267;19;20142;-75
2022/09/14 12:48:54;;;;;;;3.90;1.50;;;25.80;99.90;;;;;;7395323;19;20139;-76
2022/09/14 12:51:20;;;;;;;2.50;1.35;;;25.50;99.90;;;;;;7392088;19;20202;-77
2022/09/14 12:53:50;;;;;;;1.60;1.20;;;25.20;99.90;;;;;;7391296;19;20139;-76
2022/09/14 12:56:47;;;;;;;2.25;1.38;;;24.80;99.90;;;;;;7392770;19;20640;-75
2022/09/14 12:59:31;;;;;;;3.22;1.67;;;24.60;99.90;;;;;;7393403;19;20153;-76
2022/09/14 13:02:09;;;;;;;3.13;1.40;;;24.40;99.90;;;;;;7392874;19;20146;-76
2022/09/14 13:04:40;;;;;;;3.13;1.30;;;24.10;99.90;;;;;;7392116;19;20844;-75
2022/09/14 13:07:14;;;;;;;3.03;1.40;;;24.00;99.90;;;;;;7392255;19;20171;-77
2022/09/14 13:09:49;;;;;;;2.78;1.45;;;23.80;99.90;;;;;;7391621;19;20144;-75
2022/09/14 13:12:33;;;;;;;2.72;1.48;;;23.70;99.90;;;;;;7393596;19;20137;-75